sensor_id;sensor_type;location;lat;lon;timestamp;pressure;altitude;pressure_sealevel;temperature
73894;BMP280;62699;50.534;12.784;2022-12-29T00:01:10;95746.44;;;6.78
73894;BMP280;62699;50.534;12.784;2022-12-29T00:06:10;95760.03;;;6.69
73894;BMP280;62699;50.534;12.784;2022-12-29T00:11:16;95738.88;;;6.71
73894;BMP280;62699;50.534;12.784;2022-12-29T00:16:17;95745.91;;;6.68
73894;BMP280;62699;50.534;12.784;2022-12-29T00:21:19;95744.38;;;6.61
73894;BMP280;62699;50.534;12.784;2022-12-29T00:26:38;95739.03;;;6.61
73894;BMP280;62699;50.534;12.784;2022-12-29T00:31:57;95724.72;;;6.64
73894;BMP280;62699;50.534;12.784;2022-12-29T00:37:16;95718.13;;;6.60
73894;BMP280;62699;50.534;12.784;2022-12-29T00:42:17;95725.94;;;6.63
73894;BMP280;62699;50.534;12.784;2022-12-29T00:47:40;95730.09;;;6.70
73894;BMP280;62699;50.534;12.784;2022-12-29T00:52:40;95734.25;;;6.71
73894;BMP280;62699;50.534;12.784;2022-12-29T00:57:40;95730.13;;;6.76
73894;BMP280;62699;50.534;12.784;2022-12-29T01:02:40;95716.28;;;6.83
73894;BMP280;62699;50.534;12.784;2022-12-29T01:07:41;95724.53;;;6.74
73894;BMP280;62699;50.534;12.784;2022-12-29T01:12:41;95743.78;;;6.78
73894;BMP280;62699;50.534;12.784;2022-12-29T01:17:42;95727.94;;;6.69
73894;BMP280;62699;50.534;12.784;2022-12-29T01:22:42;95725.50;;;6.71
73894;BMP280;62699;50.534;12.784;2022-12-29T01:27:43;95747.34;;;6.69
73894;BMP280;62699;50.534;12.784;2022-12-29T01:32:44;95742.00;;;6.69
73894;BMP280;62699;50.534;12.784;2022-12-29T01:37:44;95738.38;;;6.72
73894;BMP280;62699;50.534;12.784;2022-12-29T01:42:44;95719.38;;;6.64
73894;BMP280;62699;50.534;12.784;2022-12-29T01:47:48;95714.28;;;6.66
73894;BMP280;62699;50.534;12.784;2022-12-29T01:52:59;95701.53;;;6.98
73894;BMP280;62699;50.534;12.784;2022-12-29T01:58:03;95692.59;;;7.07
73894;BMP280;62699;50.534;12.784;2022-12-29T02:03:05;95677.97;;;7.14
73894;BMP280;62699;50.534;12.784;2022-12-29T02:08:06;95671.94;;;7.19
73894;BMP280;62699;50.534;12.784;2022-12-29T02:13:09;95669.00;;;7.22
73894;BMP280;62699;50.534;12.784;2022-12-29T02:18:39;95668.78;;;7.26
73894;BMP280;62699;50.534;12.784;2022-12-29T02:39:44;95670.22;;;7.32
73894;BMP280;62699;50.534;12.784;2022-12-29T02:45:13;95656.66;;;7.41
73894;BMP280;62699;50.534;12.784;2022-12-29T02:50:35;95645.44;;;7.48
73894;BMP280;62699;50.534;12.784;2022-12-29T02:55:36;95640.78;;;7.55
73894;BMP280;62699;50.534;12.784;2022-12-29T03:06:27;95635.94;;;7.59
73894;BMP280;62699;50.534;12.784;2022-12-29T03:11:39;95638.13;;;7.66
73894;BMP280;62699;50.534;12.784;2022-12-29T03:17:08;95633.28;;;7.70
73894;BMP280;62699;50.534;12.784;2022-12-29T03:22:15;95633.28;;;7.70
73894;BMP280;62699;50.534;12.784;2022-12-29T03:27:30;95621.34;;;7.71
73894;BMP280;62699;50.534;12.784;2022-12-29T03:32:36;95623.75;;;7.69
73894;BMP280;62699;50.534;12.784;2022-12-29T03:43:04;95648.13;;;7.71
73894;BMP280;62699;50.534;12.784;2022-12-29T03:48:05;95632.06;;;7.76
73894;BMP280;62699;50.534;12.784;2022-12-29T03:53:05;95638.63;;;7.75
73894;BMP280;62699;50.534;12.784;2022-12-29T03:58:05;95625.72;;;7.74
73894;BMP280;62699;50.534;12.784;2022-12-29T04:03:05;95605.25;;;7.76
73894;BMP280;62699;50.534;12.784;2022-12-29T04:08:06;95606.47;;;7.81
73894;BMP280;62699;50.534;12.784;2022-12-29T04:13:06;95602.31;;;7.85
73894;BMP280;62699;50.534;12.784;2022-12-29T04:18:06;95606.72;;;7.83
73894;BMP280;62699;50.534;12.784;2022-12-29T04:23:06;95607.44;;;7.89
73894;BMP280;62699;50.534;12.784;2022-12-29T04:28:07;95617.91;;;7.87
73894;BMP280;62699;50.534;12.784;2022-12-29T04:33:08;95602.53;;;7.99
73894;BMP280;62699;50.534;12.784;2022-12-29T04:38:08;95593.03;;;8.03
73894;BMP280;62699;50.534;12.784;2022-12-29T04:43:09;95592.53;;;8.10
73894;BMP280;62699;50.534;12.784;2022-12-29T04:48:25;95599.31;;;8.22
73894;BMP280;62699;50.534;12.784;2022-12-29T04:53:25;95604.66;;;8.28
73894;BMP280;62699;50.534;12.784;2022-12-29T04:58:26;95601.75;;;8.26
73894;BMP280;62699;50.534;12.784;2022-12-29T05:03:26;95578.09;;;8.24
73894;BMP280;62699;50.534;12.784;2022-12-29T05:08:26;95602.03;;;8.11
73894;BMP280;62699;50.534;12.784;2022-12-29T05:13:27;95591.31;;;8.00
73894;BMP280;62699;50.534;12.784;2022-12-29T05:18:27;95584.50;;;7.93
73894;BMP280;62699;50.534;12.784;2022-12-29T05:23:27;95597.69;;;7.86
73894;BMP280;62699;50.534;12.784;2022-12-29T05:28:28;95591.59;;;7.85
73894;BMP280;62699;50.534;12.784;2022-12-29T05:33:29;95596.22;;;7.85
73894;BMP280;62699;50.534;12.784;2022-12-29T05:38:29;95590.41;;;7.81
73894;BMP280;62699;50.534;12.784;2022-12-29T05:43:29;95626.69;;;7.76
73894;BMP280;62699;50.534;12.784;2022-12-29T05:48:29;95634.00;;;7.76
73894;BMP280;62699;50.534;12.784;2022-12-29T05:53:32;95648.34;;;7.73
73894;BMP280;62699;50.534;12.784;2022-12-29T05:58:33;95649.59;;;7.72
73894;BMP280;62699;50.534;12.784;2022-12-29T06:04:02;95640.81;;;7.71
73894;BMP280;62699;50.534;12.784;2022-12-29T06:09:17;95639.84;;;7.80
73894;BMP280;62699;50.534;12.784;2022-12-29T06:14:18;95641.31;;;7.86
73894;BMP280;62699;50.534;12.784;2022-12-29T06:19:18;95639.09;;;7.85
73894;BMP280;62699;50.534;12.784;2022-12-29T06:24:27;95639.84;;;7.80
73894;BMP280;62699;50.534;12.784;2022-12-29T06:29:28;95633.50;;;7.77
73894;BMP280;62699;50.534;12.784;2022-12-29T06:34:28;95628.88;;;7.67
73894;BMP280;62699;50.534;12.784;2022-12-29T06:39:28;95641.78;;;7.63
73894;BMP280;62699;50.534;12.784;2022-12-29T06:44:29;95642.53;;;7.58
73894;BMP280;62699;50.534;12.784;2022-12-29T06:49:29;95642.25;;;7.56
73894;BMP280;62699;50.534;12.784;2022-12-29T06:54:30;95636.19;;;7.49
73894;BMP280;62699;50.534;12.784;2022-12-29T06:59:30;95639.56;;;7.33
73894;BMP280;62699;50.534;12.784;2022-12-29T07:04:32;95644.88;;;7.00
73894;BMP280;62699;50.534;12.784;2022-12-29T07:09:32;95629.28;;;6.98
73894;BMP280;62699;50.534;12.784;2022-12-29T07:14:32;95618.81;;;6.95
73894;BMP280;62699;50.534;12.784;2022-12-29T07:19:33;95640.44;;;6.86
73894;BMP280;62699;50.534;12.784;2022-12-29T07:24:33;95662.78;;;6.83
73894;BMP280;62699;50.534;12.784;2022-12-29T07:29:33;95654.56;;;6.81
73894;BMP280;62699;50.534;12.784;2022-12-29T07:34:33;95657.38;;;6.72
73894;BMP280;62699;50.534;12.784;2022-12-29T07:39:34;95657.88;;;6.64
73894;BMP280;62699;50.534;12.784;2022-12-29T07:44:34;95657.66;;;6.74
73894;BMP280;62699;50.534;12.784;2022-12-29T07:49:34;95658.72;;;6.93
73894;BMP280;62699;50.534;12.784;2022-12-29T07:54:35;95675.50;;;6.93
73894;BMP280;62699;50.534;12.784;2022-12-29T07:59:36;95668.72;;;7.09
73894;BMP280;62699;50.534;12.784;2022-12-29T08:04:36;95666.53;;;7.13
73894;BMP280;62699;50.534;12.784;2022-12-29T08:09:37;95673.88;;;7.18
73894;BMP280;62699;50.534;12.784;2022-12-29T08:14:37;95680.22;;;7.26
73894;BMP280;62699;50.534;12.784;2022-12-29T08:19:37;95677.31;;;7.30
73894;BMP280;62699;50.534;12.784;2022-12-29T08:24:40;95691.16;;;7.34
73894;BMP280;62699;50.534;12.784;2022-12-29T08:29:41;95689.72;;;7.44
73894;BMP280;62699;50.534;12.784;2022-12-29T08:34:41;95673.44;;;7.47
73894;BMP280;62699;50.534;12.784;2022-12-29T08:39:42;95649.59;;;7.49
73894;BMP280;62699;50.534;12.784;2022-12-29T08:44:43;95679.78;;;7.78
73894;BMP280;62699;50.534;12.784;2022-12-29T08:49:45;95673.69;;;8.00
73894;BMP280;62699;50.534;12.784;2022-12-29T08:54:45;95676.59;;;8.18
73894;BMP280;62699;50.534;12.784;2022-12-29T08:59:46;95673.75;;;8.74
73894;BMP280;62699;50.534;12.784;2022-12-29T09:04:46;95671.13;;;8.63
73894;BMP280;62699;50.534;12.784;2022-12-29T09:09:46;95688.81;;;8.88
73894;BMP280;62699;50.534;12.784;2022-12-29T09:14:46;95666.69;;;8.71
73894;BMP280;62699;50.534;12.784;2022-12-29T09:19:47;95676.28;;;8.44
73894;BMP280;62699;50.534;12.784;2022-12-29T09:24:47;95669.72;;;8.40
73894;BMP280;62699;50.534;12.784;2022-12-29T09:29:47;95678.25;;;8.38
73894;BMP280;62699;50.534;12.784;2022-12-29T09:34:47;95676.81;;;8.31
73894;BMP280;62699;50.534;12.784;2022-12-29T09:39:48;95650.28;;;8.17
73894;BMP280;62699;50.534;12.784;2022-12-29T09:44:59;95646.09;;;8.27
73894;BMP280;62699;50.534;12.784;2022-12-29T09:55:17;95636.53;;;8.54
73894;BMP280;62699;50.534;12.784;2022-12-29T10:00:21;95642.09;;;8.56
73894;BMP280;62699;50.534;12.784;2022-12-29T10:05:45;95639.91;;;8.60
73894;BMP280;62699;50.534;12.784;2022-12-29T10:10:59;95624.00;;;8.73
73894;BMP280;62699;50.534;12.784;2022-12-29T10:16:08;95621.91;;;8.96
73894;BMP280;62699;50.534;12.784;2022-12-29T10:26:41;95632.84;;;9.39
73894;BMP280;62699;50.534;12.784;2022-12-29T10:31:58;95627.16;;;9.48
73894;BMP280;62699;50.534;12.784;2022-12-29T10:37:17;95636.06;;;9.67
73894;BMP280;62699;50.534;12.784;2022-12-29T10:42:35;95606.97;;;9.41
73894;BMP280;62699;50.534;12.784;2022-12-29T10:47:49;95616.56;;;9.31
73894;BMP280;62699;50.534;12.784;2022-12-29T10:52:52;95631.19;;;9.36
73894;BMP280;62699;50.534;12.784;2022-12-29T10:57:55;95629.19;;;9.42
73894;BMP280;62699;50.534;12.784;2022-12-29T11:08:25;95625.19;;;9.54
73894;BMP280;62699;50.534;12.784;2022-12-29T11:13:29;95619.19;;;9.42
73894;BMP280;62699;50.534;12.784;2022-12-29T11:18:37;95611.13;;;9.42
73894;BMP280;62699;50.534;12.784;2022-12-29T11:23:39;95608.69;;;9.39
73894;BMP280;62699;50.534;12.784;2022-12-29T11:28:42;95615.25;;;9.43
73894;BMP280;62699;50.534;12.784;2022-12-29T11:33:43;95616.53;;;9.37
73894;BMP280;62699;50.534;12.784;2022-12-29T11:38:49;95606.09;;;9.28
73894;BMP280;62699;50.534;12.784;2022-12-29T11:43:52;95604.59;;;9.32
73894;BMP280;62699;50.534;12.784;2022-12-29T11:48:53;95604.78;;;9.40
73894;BMP280;62699;50.534;12.784;2022-12-29T11:53:57;95604.69;;;9.51
73894;BMP280;62699;50.534;12.784;2022-12-29T12:04:25;95603.16;;;9.85
73894;BMP280;62699;50.534;12.784;2022-12-29T12:09:30;95603.81;;;9.91
73894;BMP280;62699;50.534;12.784;2022-12-29T12:14:36;95594.28;;;9.90
73894;BMP280;62699;50.534;12.784;2022-12-29T12:19:42;95577.56;;;10.03
73894;BMP280;62699;50.534;12.784;2022-12-29T12:25:04;95577.59;;;10.22
73894;BMP280;62699;50.534;12.784;2022-12-29T12:30:19;95571.50;;;10.40
73894;BMP280;62699;50.534;12.784;2022-12-29T12:35:44;95563.19;;;10.38
73894;BMP280;62699;50.534;12.784;2022-12-29T12:40:58;95574.47;;;10.36
73894;BMP280;62699;50.534;12.784;2022-12-29T12:46:31;95573.31;;;10.32
73894;BMP280;62699;50.534;12.784;2022-12-29T12:57:14;95567.16;;;10.37
73894;BMP280;62699;50.534;12.784;2022-12-29T13:02:29;95560.94;;;10.42
73894;BMP280;62699;50.534;12.784;2022-12-29T13:07:48;95568.38;;;10.36
73894;BMP280;62699;50.534;12.784;2022-12-29T13:33:49;95583.31;;;10.55
73894;BMP280;62699;50.534;12.784;2022-12-29T13:44:16;95576.59;;;10.81
73894;BMP280;62699;50.534;12.784;2022-12-29T13:49:19;95576.78;;;10.83
73894;BMP280;62699;50.534;12.784;2022-12-29T14:00:22;95601.75;;;10.83
73894;BMP280;62699;50.534;12.784;2022-12-29T14:10:31;95591.22;;;10.98
73894;BMP280;62699;50.534;12.784;2022-12-29T14:15:37;95597.94;;;10.92
73894;BMP280;62699;50.534;12.784;2022-12-29T14:31:01;95625.78;;;10.81
73894;BMP280;62699;50.534;12.784;2022-12-29T14:36:23;95625.75;;;10.44
73894;BMP280;62699;50.534;12.784;2022-12-29T14:41:38;95618.91;;;10.24
73894;BMP280;62699;50.534;12.784;2022-12-29T14:51:45;95630.03;;;10.09
73894;BMP280;62699;50.534;12.784;2022-12-29T14:56:45;95632.91;;;9.93
73894;BMP280;62699;50.534;12.784;2022-12-29T15:01:50;95639.00;;;9.93
73894;BMP280;62699;50.534;12.784;2022-12-29T15:06:52;95651.59;;;9.80
73894;BMP280;62699;50.534;12.784;2022-12-29T15:11:57;95646.53;;;9.71
73894;BMP280;62699;50.534;12.784;2022-12-29T15:16:59;95644.09;;;9.67
73894;BMP280;62699;50.534;12.784;2022-12-29T15:22:00;95651.03;;;9.62
73894;BMP280;62699;50.534;12.784;2022-12-29T15:27:02;95669.09;;;9.62
73894;BMP280;62699;50.534;12.784;2022-12-29T15:32:38;95698.78;;;9.45
73894;BMP280;62699;50.534;12.784;2022-12-29T15:37:39;95665.81;;;9.39
73894;BMP280;62699;50.534;12.784;2022-12-29T15:42:51;95683.03;;;9.19
73894;BMP280;62699;50.534;12.784;2022-12-29T15:47:55;95675.09;;;9.03
73894;BMP280;62699;50.534;12.784;2022-12-29T15:52:56;95671.28;;;8.76
73894;BMP280;62699;50.534;12.784;2022-12-29T15:57:58;95668.44;;;8.63
73894;BMP280;62699;50.534;12.784;2022-12-29T16:03:01;95679.47;;;8.43
73894;BMP280;62699;50.534;12.784;2022-12-29T16:08:03;95686.81;;;8.25
73894;BMP280;62699;50.534;12.784;2022-12-29T16:13:21;95704.16;;;8.19
73894;BMP280;62699;50.534;12.784;2022-12-29T16:18:35;95688.31;;;7.93
73894;BMP280;62699;50.534;12.784;2022-12-29T16:23:36;95680.50;;;7.73
73894;BMP280;62699;50.534;12.784;2022-12-29T16:28:40;95672.72;;;7.86
73894;BMP280;62699;50.534;12.784;2022-12-29T16:33:53;95681.47;;;7.59
73894;BMP280;62699;50.534;12.784;2022-12-29T16:44:33;95685.53;;;7.15
73894;BMP280;62699;50.534;12.784;2022-12-29T16:49:34;95683.56;;;7.04
73894;BMP280;62699;50.534;12.784;2022-12-29T16:54:36;95679.41;;;6.98
73894;BMP280;62699;50.534;12.784;2022-12-29T16:59:38;95685.47;;;6.93
73894;BMP280;62699;50.534;12.784;2022-12-29T17:04:39;95690.78;;;6.82
73894;BMP280;62699;50.534;12.784;2022-12-29T17:09:40;95696.06;;;6.71
73894;BMP280;62699;50.534;12.784;2022-12-29T17:14:44;95708.88;;;6.55
73894;BMP280;62699;50.534;12.784;2022-12-29T17:19:53;95714.88;;;6.39
73894;BMP280;62699;50.534;12.784;2022-12-29T17:24:57;95696.06;;;6.71
73894;BMP280;62699;50.534;12.784;2022-12-29T17:30:01;95705.94;;;6.53
73894;BMP280;62699;50.534;12.784;2022-12-29T17:35:02;95711.53;;;6.50
73894;BMP280;62699;50.534;12.784;2022-12-29T17:40:05;95719.28;;;6.48
73894;BMP280;62699;50.534;12.784;2022-12-29T17:45:12;95698.63;;;6.48
73894;BMP280;62699;50.534;12.784;2022-12-29T17:50:15;95712.53;;;6.58
73894;BMP280;62699;50.534;12.784;2022-12-29T17:55:18;95719.59;;;6.55
73894;BMP280;62699;50.534;12.784;2022-12-29T18:00:24;95724.66;;;6.53
73894;BMP280;62699;50.534;12.784;2022-12-29T18:05:29;95747.53;;;6.54
73894;BMP280;62699;50.534;12.784;2022-12-29T18:10:30;95752.22;;;6.71
73894;BMP280;62699;50.534;12.784;2022-12-29T18:15:37;95757.53;;;7.07
73894;BMP280;62699;50.534;12.784;2022-12-29T18:20:38;95749.91;;;7.65
73894;BMP280;62699;50.534;12.784;2022-12-29T18:25:44;95758.97;;;8.01
73894;BMP280;62699;50.534;12.784;2022-12-29T18:30:45;95758.25;;;8.12
73894;BMP280;62699;50.534;12.784;2022-12-29T18:35:49;95747.25;;;8.32
73894;BMP280;62699;50.534;12.784;2022-12-29T18:40:51;95746.00;;;8.44
73894;BMP280;62699;50.534;12.784;2022-12-29T18:45:51;95751.63;;;8.41
73894;BMP280;62699;50.534;12.784;2022-12-29T18:50:51;95743.09;;;8.42
73894;BMP280;62699;50.534;12.784;2022-12-29T18:55:53;95752.16;;;8.28
73894;BMP280;62699;50.534;12.784;2022-12-29T19:00:53;95728.75;;;8.28
73894;BMP280;62699;50.534;12.784;2022-12-29T19:05:53;95716.03;;;8.34
73894;BMP280;62699;50.534;12.784;2022-12-29T19:10:54;95729.22;;;8.27
73894;BMP280;62699;50.534;12.784;2022-12-29T19:15:56;95732.16;;;8.18
73894;BMP280;62699;50.534;12.784;2022-12-29T19:20:56;95716.56;;;8.27
73894;BMP280;62699;50.534;12.784;2022-12-29T19:25:56;95705.28;;;8.46
73894;BMP280;62699;50.534;12.784;2022-12-29T19:30:58;95709.91;;;8.51
73894;BMP280;62699;50.534;12.784;2022-12-29T19:36:00;95706.78;;;8.35
73894;BMP280;62699;50.534;12.784;2022-12-29T19:41:05;95703.63;;;8.26
73894;BMP280;62699;50.534;12.784;2022-12-29T19:46:07;95700.97;;;8.20
73894;BMP280;62699;50.534;12.784;2022-12-29T19:51:10;95709.03;;;7.98
73894;BMP280;62699;50.534;12.784;2022-12-29T19:56:11;95696.59;;;7.84
73894;BMP280;62699;50.534;12.784;2022-12-29T20:01:14;95692.47;;;7.72
73894;BMP280;62699;50.534;12.784;2022-12-29T20:06:15;95703.41;;;7.63
73894;BMP280;62699;50.534;12.784;2022-12-29T20:11:17;95693.66;;;7.48
73894;BMP280;62699;50.534;12.784;2022-12-29T20:16:19;95716.03;;;7.45
73894;BMP280;62699;50.534;12.784;2022-12-29T20:21:22;95724.25;;;7.25
73894;BMP280;62699;50.534;12.784;2022-12-29T20:26:28;95721.75;;;6.99
73894;BMP280;62699;50.534;12.784;2022-12-29T20:31:32;95732.28;;;6.72
73894;BMP280;62699;50.534;12.784;2022-12-29T20:36:34;95732.75;;;6.64
73894;BMP280;62699;50.534;12.784;2022-12-29T20:41:35;95742.88;;;6.49
73894;BMP280;62699;50.534;12.784;2022-12-29T20:46:35;95753.50;;;6.38
73894;BMP280;62699;50.534;12.784;2022-12-29T20:51:36;95752.44;;;6.30
73894;BMP280;62699;50.534;12.784;2022-12-29T20:56:37;95765.00;;;6.18
73894;BMP280;62699;50.534;12.784;2022-12-29T21:01:47;95747.88;;;6.36
73894;BMP280;62699;50.534;12.784;2022-12-29T21:06:47;95774.44;;;6.45
73894;BMP280;62699;50.534;12.784;2022-12-29T21:11:49;95775.53;;;6.28
73894;BMP280;62699;50.534;12.784;2022-12-29T21:16:50;95772.88;;;6.28
73894;BMP280;62699;50.534;12.784;2022-12-29T21:21:50;95765.47;;;6.17
73894;BMP280;62699;50.534;12.784;2022-12-29T21:26:51;95767.41;;;5.91
73894;BMP280;62699;50.534;12.784;2022-12-29T21:31:51;95772.81;;;5.96
73894;BMP280;62699;50.534;12.784;2022-12-29T21:36:51;95772.78;;;6.22
73894;BMP280;62699;50.534;12.784;2022-12-29T21:41:52;95774.56;;;5.99
73894;BMP280;62699;50.534;12.784;2022-12-29T21:46:52;95779.72;;;5.82
73894;BMP280;62699;50.534;12.784;2022-12-29T21:51:52;95800.47;;;5.67
73894;BMP280;62699;50.534;12.784;2022-12-29T21:56:52;95817.41;;;5.64
73894;BMP280;62699;50.534;12.784;2022-12-29T22:01:53;95801.09;;;5.57
73894;BMP280;62699;50.534;12.784;2022-12-29T22:07:12;95825.88;;;5.63
73894;BMP280;62699;50.534;12.784;2022-12-29T22:12:33;95815.94;;;5.63
73894;BMP280;62699;50.534;12.784;2022-12-29T22:17:53;95814.28;;;5.66
73894;BMP280;62699;50.534;12.784;2022-12-29T22:22:54;95826.16;;;5.65
73894;BMP280;62699;50.534;12.784;2022-12-29T22:27:54;95823.41;;;5.79
73894;BMP280;62699;50.534;12.784;2022-12-29T22:32:55;95822.41;;;5.77
73894;BMP280;62699;50.534;12.784;2022-12-29T22:37:56;95821.09;;;5.93
73894;BMP280;62699;50.534;12.784;2022-12-29T22:42:56;95847.25;;;6.29
73894;BMP280;62699;50.534;12.784;2022-12-29T22:47:56;95843.41;;;6.73
73894;BMP280;62699;50.534;12.784;2022-12-29T22:52:56;95832.97;;;6.75
73894;BMP280;62699;50.534;12.784;2022-12-29T22:57:57;95844.22;;;6.79
73894;BMP280;62699;50.534;12.784;2022-12-29T23:02:57;95854.91;;;6.79
73894;BMP280;62699;50.534;12.784;2022-12-29T23:07:59;95856.13;;;6.78
73894;BMP280;62699;50.534;12.784;2022-12-29T23:12:59;95884.03;;;6.71
73894;BMP280;62699;50.534;12.784;2022-12-29T23:17:59;95879.38;;;6.66
73894;BMP280;62699;50.534;12.784;2022-12-29T23:23:00;95885.84;;;6.85
73894;BMP280;62699;50.534;12.784;2022-12-29T23:28:00;95891.19;;;6.85
73894;BMP280;62699;50.534;12.784;2022-12-29T23:33:00;95895.38;;;6.92
73894;BMP280;62699;50.534;12.784;2022-12-29T23:38:00;95897.81;;;6.90
73894;BMP280;62699;50.534;12.784;2022-12-29T23:43:01;95884.44;;;6.95
73894;BMP280;62699;50.534;12.784;2022-12-29T23:48:01;95889.44;;;6.77
73894;BMP280;62699;50.534;12.784;2022-12-29T23:53:03;95888.88;;;6.73
73894;BMP280;62699;50.534;12.784;2022-12-29T23:58:03;95895.44;;;6.72
